Time;durP1;ratioP1;P1;durP2;ratioP2;P2;SDS_P1;SDS_P2;PMS_P1;PMS_P2;Temp;Humidity;BMP_temperature;BMP_pressure;BME280_temperature;BME280_humidity;BME280_pressure;Samples;Min_cycle;Max_cycle;Signal;HPM_P1;HPM_P2
2023/04/11 00:01:59;;;;;;;8.10;5.40;;;12.50;96.30;;;;;;5055039;28;20481;-65
2023/04/11 00:04:44;;;;;;;7.97;5.10;;;12.50;96.20;;;;;;5055284;28;20467;-61
2023/04/11 00:07:34;;;;;;;9.70;6.17;;;12.50;96.40;;;;;;5055003;28;20556;-64
2023/04/11 00:10:10;;;;;;;7.27;4.87;;;12.40;96.50;;;;;;5055089;28;20425;-64
2023/04/11 00:12:39;;;;;;;17.07;5.93;;;12.40;96.50;;;;;;5054334;28;20464;-62
2023/04/11 00:15:10;;;;;;;6.90;5.23;;;12.40;96.60;;;;;;5054042;28;20500;-62
2023/04/11 00:17:44;;;;;;;8.27;4.83;;;12.40;96.80;;;;;;5054467;28;20467;-65
2023/04/11 00:20:13;;;;;;;7.30;5.30;;;12.40;96.80;;;;;;5054282;28;20766;-62
2023/04/11 00:22:42;;;;;;;9.53;5.63;;;12.40;97.00;;;;;;5054345;28;20452;-63
2023/04/11 00:25:10;;;;;;;8.57;5.40;;;12.40;97.10;;;;;;5053845;28;20491;-64
2023/04/11 00:27:37;;;;;;;8.73;6.03;;;12.40;97.20;;;;;;5053968;28;20512;-62
2023/04/11 00:30:07;;;;;;;8.60;5.57;;;12.40;97.20;;;;;;5053993;28;20495;-64
2023/04/11 00:32:34;;;;;;;9.70;6.27;;;12.40;97.30;;;;;;5054565;28;20452;-63
2023/04/11 00:35:01;;;;;;;7.87;5.87;;;12.40;97.50;;;;;;5054419;28;20825;-64
2023/04/11 00:37:30;;;;;;;7.40;5.20;;;12.40;97.60;;;;;;5053416;28;20471;-62
2023/04/11 00:39:58;;;;;;;7.57;6.00;;;12.30;97.70;;;;;;5053598;28;20455;-64
2023/04/11 00:42:30;;;;;;;8.20;5.20;;;12.30;98.00;;;;;;5053866;28;20483;-64
2023/04/11 00:45:01;;;;;;;7.47;6.00;;;12.20;98.30;;;;;;5054264;28;20460;-62
2023/04/11 00:47:33;;;;;;;8.97;6.23;;;12.20;98.50;;;;;;5053851;28;20522;-62
2023/04/11 00:50:01;;;;;;;6.87;4.30;;;12.20;98.70;;;;;;5053641;28;20416;-64
2023/04/11 00:52:28;;;;;;;8.77;5.30;;;12.10;98.80;;;;;;5053636;28;20547;-64
2023/04/11 00:55:03;;;;;;;8.67;6.40;;;12.10;98.90;;;;;;5053653;28;20440;-63
2023/04/11 00:57:31;;;;;;;10.10;5.80;;;12.10;99.10;;;;;;5054359;28;20466;-63
2023/04/11 01:00:03;;;;;;;7.30;5.20;;;12.10;99.20;;;;;;5053583;28;20452;-63
2023/04/11 01:02:34;;;;;;;7.43;5.23;;;12.10;99.40;;;;;;5053617;28;20540;-63
2023/04/11 01:05:04;;;;;;;9.60;5.60;;;12.00;99.70;;;;;;5053401;28;20424;-64
2023/04/11 01:07:32;;;;;;;7.30;5.97;;;12.00;99.80;;;;;;5056551;28;20483;-63
2023/04/11 01:10:01;;;;;;;7.20;5.03;;;12.00;99.90;;;;;;5057240;28;20447;-62
2023/04/11 01:12:30;;;;;;;7.97;5.90;;;12.00;99.90;;;;;;5057787;28;20469;-62
2023/04/11 01:14:57;;;;;;;8.23;5.07;;;12.00;99.90;;;;;;5055880;28;20444;-60
2023/04/11 01:17:26;;;;;;;8.00;5.70;;;12.00;99.90;;;;;;5057169;28;20456;-61
2023/04/11 01:19:53;;;;;;;8.80;5.10;;;11.90;99.90;;;;;;5058411;28;20452;-61
2023/04/11 01:22:22;;;;;;;6.90;5.67;;;11.90;99.90;;;;;;5058672;28;20462;-56
2023/04/11 01:24:51;;;;;;;8.00;5.03;;;11.90;99.90;;;;;;5058053;28;20509;-61
2023/04/11 01:27:18;;;;;;;8.30;6.10;;;11.90;99.90;;;;;;5057503;28;20510;-59
2023/04/11 01:29:45;;;;;;;8.40;5.27;;;11.90;99.90;;;;;;5057818;28;20440;-61
2023/04/11 01:32:12;;;;;;;6.90;4.80;;;11.90;99.90;;;;;;5056928;28;20535;-61
2023/04/11 01:34:47;;;;;;;7.73;6.03;;;11.90;99.90;;;;;;5057581;28;20440;-61
2023/04/11 01:37:13;;;;;;;7.93;5.00;;;11.90;99.90;;;;;;5057652;28;20435;-61
2023/04/11 01:39:40;;;;;;;7.50;4.63;;;11.90;99.90;;;;;;5057318;28;20440;-62
2023/04/11 01:42:10;;;;;;;6.93;5.50;;;11.90;99.90;;;;;;5056554;28;20455;-59
2023/04/11 01:44:37;;;;;;;7.40;5.10;;;11.90;99.90;;;;;;5057262;28;20456;-60
2023/04/11 01:47:04;;;;;;;10.60;6.20;;;11.90;99.90;;;;;;5057288;28;20483;-63
2023/04/11 01:49:32;;;;;;;6.93;5.20;;;11.90;99.90;;;;;;5057584;28;20440;-63
2023/04/11 01:51:59;;;;;;;7.83;5.03;;;11.90;99.90;;;;;;5056951;28;20440;-59
2023/04/11 01:54:26;;;;;;;9.00;5.57;;;11.90;99.90;;;;;;5057565;28;20558;-61
2023/04/11 01:56:53;;;;;;;7.53;5.50;;;11.90;99.90;;;;;;5057588;28;20960;-60
2023/04/11 01:59:21;;;;;;;8.43;6.40;;;11.90;99.90;;;;;;5056419;28;20468;-62
2023/04/11 02:01:48;;;;;;;7.77;5.13;;;11.90;99.90;;;;;;5056117;28;20476;-62
2023/04/11 02:04:15;;;;;;;8.27;5.10;;;11.90;99.90;;;;;;5056469;28;20483;-60
2023/04/11 02:06:42;;;;;;;6.30;5.17;;;11.90;99.90;;;;;;5056060;28;20551;-62
2023/04/11 02:09:09;;;;;;;12.20;6.10;;;11.80;99.90;;;;;;5056925;28;20468;-63
2023/04/11 02:11:36;;;;;;;7.40;5.77;;;11.80;99.90;;;;;;5056331;28;20428;-61
2023/04/11 02:14:05;;;;;;;9.20;4.97;;;11.80;99.90;;;;;;5055269;28;20472;-62
2023/04/11 02:16:33;;;;;;;9.80;6.10;;;11.70;99.90;;;;;;5056199;28;20459;-61
2023/04/11 02:19:02;;;;;;;7.60;5.53;;;11.70;99.90;;;;;;5056051;28;20464;-62
2023/04/11 02:21:29;;;;;;;8.03;5.40;;;11.70;99.90;;;;;;5056670;28;20443;-61
2023/04/11 02:23:56;;;;;;;9.73;4.40;;;11.60;99.90;;;;;;5055485;28;20469;-61
2023/04/11 02:26:25;;;;;;;7.57;5.57;;;11.60;99.90;;;;;;5056477;28;20455;-62
2023/04/11 02:28:52;;;;;;;8.03;5.60;;;11.60;99.90;;;;;;5055696;28;20523;-63
2023/04/11 02:31:19;;;;;;;12.53;6.33;;;11.60;99.90;;;;;;5056307;28;20444;-60
2023/04/11 02:33:47;;;;;;;9.30;5.90;;;11.60;99.90;;;;;;5055969;28;20479;-62
2023/04/11 02:36:14;;;;;;;9.70;5.37;;;11.60;99.90;;;;;;5056859;28;20428;-62
2023/04/11 02:38:41;;;;;;;8.27;5.57;;;11.50;99.90;;;;;;5055744;28;20451;-59
2023/04/11 02:41:08;;;;;;;9.10;7.40;;;11.50;99.90;;;;;;5055874;28;20544;-61
2023/04/11 02:43:35;;;;;;;8.07;5.80;;;11.40;99.90;;;;;;5055820;28;20472;-62
2023/04/11 02:46:02;;;;;;;8.80;5.90;;;11.40;99.90;;;;;;5056320;28;20455;-62
2023/04/11 02:48:29;;;;;;;10.20;5.67;;;11.40;99.90;;;;;;5056023;28;20478;-61
2023/04/11 02:50:57;;;;;;;9.13;5.97;;;11.40;99.90;;;;;;5055990;28;20440;-63
2023/04/11 02:53:24;;;;;;;6.90;5.43;;;11.40;99.90;;;;;;5055013;28;20912;-62
2023/04/11 02:55:51;;;;;;;9.47;6.43;;;11.30;99.90;;;;;;5054988;28;20440;-61
2023/04/11 02:58:20;;;;;;;8.60;6.37;;;11.30;99.90;;;;;;5055380;28;20483;-62
2023/04/11 03:00:50;;;;;;;9.10;6.20;;;11.30;99.90;;;;;;5055638;28;20440;-62
2023/04/11 03:03:17;;;;;;;10.90;6.70;;;11.30;99.90;;;;;;5054500;28;20478;-62
2023/04/11 03:05:44;;;;;;;8.47;6.13;;;11.30;99.90;;;;;;5054812;28;20476;-62
2023/04/11 03:08:12;;;;;;;8.63;6.23;;;11.40;99.90;;;;;;5055440;28;20479;-61
2023/04/11 03:10:39;;;;;;;7.20;5.27;;;11.40;99.90;;;;;;5055631;28;20455;-63
2023/04/11 03:13:05;;;;;;;7.40;5.70;;;11.40;99.90;;;;;;5055731;28;20475;-62
2023/04/11 03:15:32;;;;;;;8.63;5.87;;;11.40;99.90;;;;;;5056230;28;20440;-62
2023/04/11 03:17:59;;;;;;;10.80;6.50;;;11.40;99.90;;;;;;5055916;28;20429;-62
2023/04/11 03:20:26;;;;;;;8.30;5.57;;;11.40;99.90;;;;;;5055382;28;20506;-58
2023/04/11 03:22:53;;;;;;;8.33;5.27;;;11.40;99.90;;;;;;5054821;28;20448;-62
2023/04/11 03:25:21;;;;;;;7.20;4.83;;;11.40;99.90;;;;;;5054798;28;20542;-61
2023/04/11 03:27:48;;;;;;;10.53;6.33;;;11.40;99.90;;;;;;5055074;28;20491;-62
2023/04/11 03:30:15;;;;;;;8.93;5.93;;;11.40;99.90;;;;;;5054131;28;20464;-61
2023/04/11 03:32:42;;;;;;;7.57;5.30;;;11.40;99.90;;;;;;5054465;28;20448;-63
2023/04/11 03:35:13;;;;;;;8.13;5.17;;;11.40;99.90;;;;;;5054223;28;20507;-62
2023/04/11 03:37:40;;;;;;;7.90;5.37;;;11.40;99.90;;;;;;5054662;28;20444;-62
2023/04/11 03:40:08;;;;;;;9.37;5.93;;;11.30;99.90;;;;;;5054423;28;20476;-60
2023/04/11 03:42:37;;;;;;;7.73;5.90;;;11.40;99.90;;;;;;5055066;28;20449;-62
2023/04/11 03:45:07;;;;;;;8.63;5.90;;;11.40;99.90;;;;;;5053954;28;20468;-61
2023/04/11 03:47:34;;;;;;;7.47;4.70;;;11.40;99.90;;;;;;5053497;28;20495;-61
2023/04/11 03:50:02;;;;;;;11.73;5.50;;;11.40;99.90;;;;;;5054902;28;20463;-62
2023/04/11 03:52:29;;;;;;;9.10;5.23;;;11.40;99.90;;;;;;5054416;28;20502;-61
2023/04/11 03:54:59;;;;;;;7.20;5.00;;;11.40;99.90;;;;;;5054129;28;20463;-62
2023/04/11 03:57:26;;;;;;;11.00;6.43;;;11.50;99.90;;;;;;5054468;28;20447;-63
2023/04/11 03:59:55;;;;;;;10.23;5.80;;;11.50;99.90;;;;;;5054385;28;20474;-64
2023/04/11 04:02:25;;;;;;;8.53;5.83;;;11.50;99.90;;;;;;5053304;28;20460;-62
2023/04/11 04:04:57;;;;;;;8.50;5.77;;;11.50;99.90;;;;;;5054087;28;20476;-60
2023/04/11 04:07:24;;;;;;;9.00;5.90;;;11.50;99.90;;;;;;5054767;28;20496;-62
2023/04/11 04:09:51;;;;;;;7.97;5.00;;;11.50;99.90;;;;;;5053883;28;20491;-63
2023/04/11 04:12:19;;;;;;;7.80;5.27;;;11.50;99.90;;;;;;5054428;28;20444;-61
2023/04/11 04:14:52;;;;;;;7.30;4.67;;;11.50;99.90;;;;;;5054201;28;20455;-61
2023/04/11 04:17:20;;;;;;;7.33;6.00;;;11.50;99.90;;;;;;5054682;28;20417;-62
2023/04/11 04:19:48;;;;;;;6.53;4.13;;;11.50;99.90;;;;;;5052983;28;20475;-62
2023/04/11 04:22:16;;;;;;;8.50;5.30;;;11.40;99.90;;;;;;5054096;28;20482;-61
2023/04/11 04:24:45;;;;;;;9.13;6.27;;;11.40;99.90;;;;;;5055071;28;20492;-61
2023/04/11 04:27:12;;;;;;;7.70;5.23;;;11.40;99.90;;;;;;5054366;28;20432;-60
2023/04/11 04:29:45;;;;;;;13.40;5.70;;;11.40;99.90;;;;;;5054024;28;20499;-62
2023/04/11 04:32:12;;;;;;;9.60;5.10;;;11.40;99.90;;;;;;5054460;28;20443;-59
2023/04/11 04:34:48;;;;;;;11.73;5.27;;;11.40;99.90;;;;;;5053527;28;20463;-62
2023/04/11 04:37:20;;;;;;;9.00;5.37;;;11.30;99.90;;;;;;5053711;28;20468;-62
2023/04/11 04:39:52;;;;;;;8.57;4.97;;;11.20;99.90;;;;;;5053783;28;20409;-61
2023/04/11 04:42:21;;;;;;;8.97;5.20;;;11.10;99.90;;;;;;5056602;28;20439;-61
2023/04/11 04:44:48;;;;;;;6.00;5.30;;;11.00;99.90;;;;;;5058283;28;20893;-61
2023/04/11 04:47:15;;;;;;;10.20;7.00;;;10.90;99.90;;;;;;5057514;28;20463;-61
2023/04/11 04:49:44;;;;;;;8.33;5.37;;;10.80;99.90;;;;;;5056874;28;20451;-62
2023/04/11 04:52:11;;;;;;;8.00;5.50;;;10.60;99.90;;;;;;5057866;28;20445;-63
2023/04/11 04:54:39;;;;;;;7.77;5.10;;;10.50;99.90;;;;;;5057511;28;20444;-61
2023/04/11 04:57:07;;;;;;;9.60;6.00;;;10.50;99.90;;;;;;5057970;28;20448;-60
2023/04/11 04:59:34;;;;;;;10.13;5.90;;;10.40;99.90;;;;;;5057808;28;20444;-61
2023/04/11 05:02:00;;;;;;;14.97;5.87;;;10.40;99.90;;;;;;5057875;28;20463;-61
2023/04/11 05:04:28;;;;;;;8.80;5.83;;;10.40;99.90;;;;;;5058288;28;20459;-62
2023/04/11 05:06:58;;;;;;;10.50;5.97;;;10.40;99.90;;;;;;5058307;28;20439;-60
2023/04/11 05:09:25;;;;;;;7.90;5.53;;;10.30;99.90;;;;;;5058788;28;20475;-60
2023/04/11 05:11:52;;;;;;;9.60;4.80;;;10.30;99.90;;;;;;5058337;28;20471;-58
2023/04/11 05:14:19;;;;;;;15.30;6.40;;;10.30;99.90;;;;;;5057645;28;20440;-61
2023/04/11 05:16:46;;;;;;;9.53;5.50;;;10.30;99.90;;;;;;5056769;28;20828;-60
2023/04/11 05:19:13;;;;;;;8.90;5.80;;;10.30;99.90;;;;;;5056916;28;20478;-62
2023/04/11 05:21:40;;;;;;;7.43;4.93;;;10.30;99.90;;;;;;5057631;28;20956;-62
2023/04/11 05:24:08;;;;;;;7.73;5.47;;;10.30;99.90;;;;;;5058285;28;20447;-57
2023/04/11 05:26:35;;;;;;;11.60;5.47;;;10.30;99.90;;;;;;5057066;28;20467;-62
2023/04/11 05:29:02;;;;;;;12.53;6.63;;;10.30;99.90;;;;;;5056846;28;20479;-62
2023/04/11 05:31:29;;;;;;;8.50;5.43;;;10.30;99.90;;;;;;5057630;28;20498;-62
2023/04/11 05:33:57;;;;;;;9.10;6.00;;;10.30;99.90;;;;;;5057757;28;20463;-63
2023/04/11 05:36:24;;;;;;;8.47;6.30;;;10.30;99.90;;;;;;5057240;28;20482;-62
2023/04/11 05:38:51;;;;;;;8.50;4.93;;;10.30;99.90;;;;;;5057284;28;20448;-62
2023/04/11 05:41:22;;;;;;;9.53;6.00;;;10.20;99.90;;;;;;5057543;28;20464;-60
2023/04/11 05:43:49;;;;;;;9.10;5.33;;;10.20;99.90;;;;;;5057366;28;20424;-58
2023/04/11 05:46:17;;;;;;;11.30;6.60;;;10.20;99.90;;;;;;5057613;28;20456;-59
2023/04/11 05:48:44;;;;;;;11.23;5.80;;;10.20;99.90;;;;;;5056994;28;20502;-62
2023/04/11 05:51:11;;;;;;;11.70;5.83;;;10.20;99.90;;;;;;5057323;28;20495;-61
2023/04/11 05:53:38;;;;;;;9.30;5.50;;;10.20;99.90;;;;;;5056491;28;20432;-62
2023/04/11 05:56:05;;;;;;;8.03;5.33;;;10.10;99.90;;;;;;5057472;28;20463;-64
2023/04/11 05:58:36;;;;;;;9.67;7.50;;;10.00;99.90;;;;;;5057727;28;20428;-62
2023/04/11 06:01:04;;;;;;;9.27;5.40;;;10.00;99.90;;;;;;5057703;28;20463;-61
2023/04/11 06:03:33;;;;;;;10.33;5.83;;;10.00;99.90;;;;;;5057031;28;20460;-62
2023/04/11 06:06:00;;;;;;;7.00;4.20;;;10.00;99.90;;;;;;5056214;28;20448;-60
2023/04/11 06:08:27;;;;;;;7.37;5.03;;;10.00;99.90;;;;;;5057166;28;20553;-62
2023/04/11 06:10:57;;;;;;;12.10;6.13;;;10.00;99.90;;;;;;5057571;28;20444;-58
2023/04/11 06:13:24;;;;;;;7.40;5.77;;;10.00;99.90;;;;;;5057491;28;20440;-60
2023/04/11 06:15:56;;;;;;;8.77;6.93;;;10.00;99.90;;;;;;5057452;28;20432;-61
2023/04/11 06:18:26;;;;;;;12.53;5.47;;;10.00;99.90;;;;;;5057702;28;20421;-60
2023/04/11 06:20:53;;;;;;;10.17;5.70;;;10.00;99.90;;;;;;5057787;28;20424;-59
2023/04/11 06:23:20;;;;;;;13.00;5.97;;;10.00;99.90;;;;;;5056505;28;20459;-62
2023/04/11 06:25:47;;;;;;;9.43;5.53;;;10.10;99.90;;;;;;5056832;28;20424;-61
2023/04/11 06:28:14;;;;;;;11.93;6.03;;;10.10;99.90;;;;;;5056613;28;20475;-61
2023/04/11 06:30:42;;;;;;;9.60;5.97;;;10.30;99.90;;;;;;5056843;28;20496;-63
2023/04/11 06:33:10;;;;;;;15.17;7.00;;;10.30;99.90;;;;;;5057105;28;20448;-61
2023/04/11 06:35:37;;;;;;;15.60;6.43;;;10.40;99.90;;;;;;5057172;28;20444;-61
2023/04/11 06:38:04;;;;;;;9.87;6.10;;;10.50;99.90;;;;;;5056633;28;20460;-59
2023/04/11 06:40:30;;;;;;;10.03;6.10;;;10.50;99.90;;;;;;5057321;28;20434;-61
2023/04/11 06:42:59;;;;;;;9.93;5.57;;;10.40;99.90;;;;;;5057579;28;20451;-59
2023/04/11 06:45:25;;;;;;;8.07;5.10;;;10.40;99.90;;;;;;5057403;28;20453;-56
2023/04/11 06:47:52;;;;;;;11.23;6.20;;;10.40;99.90;;;;;;5057267;28;20451;-57
2023/04/11 06:50:21;;;;;;;10.27;5.57;;;10.40;99.90;;;;;;5057482;28;20444;-60
2023/04/11 06:52:47;;;;;;;13.60;5.90;;;10.40;99.90;;;;;;5057482;28;20490;-53
2023/04/11 06:55:16;;;;;;;12.10;6.13;;;10.40;99.90;;;;;;5056112;28;20444;-61
2023/04/11 06:57:43;;;;;;;8.03;5.47;;;10.40;99.90;;;;;;5056161;28;20476;-61
2023/04/11 07:00:12;;;;;;;7.57;6.10;;;10.40;99.90;;;;;;5056519;28;20475;-59
2023/04/11 07:02:39;;;;;;;10.33;6.80;;;10.40;99.90;;;;;;5056478;28;20528;-61
2023/04/11 07:05:08;;;;;;;9.57;6.27;;;10.30;99.90;;;;;;5056288;28;20528;-58
2023/04/11 07:07:36;;;;;;;12.80;5.40;;;10.40;99.90;;;;;;5054778;28;20491;-61
2023/04/11 07:10:03;;;;;;;9.17;6.00;;;10.40;99.90;;;;;;5054898;28;20476;-60
2023/04/11 07:12:30;;;;;;;9.87;6.00;;;10.50;99.90;;;;;;5055265;28;20468;-59
2023/04/11 07:14:57;;;;;;;12.40;6.20;;;10.50;99.90;;;;;;5054765;28;20447;-60
2023/04/11 07:17:24;;;;;;;8.93;5.60;;;10.50;99.90;;;;;;5054753;28;20445;-62
2023/04/11 07:19:51;;;;;;;9.20;6.70;;;10.50;99.90;;;;;;5055160;28;20456;-62
2023/04/11 07:22:18;;;;;;;8.20;5.20;;;10.60;99.90;;;;;;5055235;28;20479;-59
2023/04/11 07:24:50;;;;;;;11.33;6.40;;;10.60;99.90;;;;;;5054980;28;20459;-59
2023/04/11 07:27:18;;;;;;;9.40;5.70;;;10.60;99.90;;;;;;5054868;28;20452;-60
2023/04/11 07:29:45;;;;;;;11.13;6.93;;;10.60;99.90;;;;;;5054277;28;20524;-61
2023/04/11 07:32:12;;;;;;;10.90;6.70;;;10.60;99.90;;;;;;5054625;28;20518;-61
2023/04/11 07:34:38;;;;;;;14.50;7.03;;;10.60;99.90;;;;;;5055497;28;20444;-60
2023/04/11 07:37:05;;;;;;;9.50;6.23;;;10.60;99.90;;;;;;5056057;28;20472;-56
2023/04/11 07:39:33;;;;;;;8.90;6.40;;;10.60;99.90;;;;;;5056304;28;20695;-59
2023/04/11 07:42:03;;;;;;;8.67;5.90;;;10.70;99.90;;;;;;5055720;28;20455;-58
2023/04/11 07:44:30;;;;;;;11.23;6.03;;;10.70;99.90;;;;;;5055459;28;20509;-58
2023/04/11 07:46:58;;;;;;;11.80;6.40;;;10.70;99.90;;;;;;5055177;28;20456;-60
2023/04/11 07:49:24;;;;;;;7.10;5.97;;;10.80;99.90;;;;;;5054308;28;20463;-62
2023/04/11 07:51:51;;;;;;;9.30;4.77;;;10.80;99.90;;;;;;5055277;28;20440;-61
2023/04/11 07:54:20;;;;;;;10.40;6.27;;;10.90;99.90;;;;;;5053902;28;20451;-62
2023/04/11 07:56:47;;;;;;;10.53;5.80;;;11.00;99.90;;;;;;5055028;28;20440;-62
2023/04/11 07:59:16;;;;;;;12.73;5.43;;;11.10;99.90;;;;;;5055084;28;20460;-58
2023/04/11 08:01:43;;;;;;;7.73;5.37;;;11.10;99.90;;;;;;5055260;28;20435;-60
2023/04/11 08:04:10;;;;;;;11.07;5.20;;;11.20;99.90;;;;;;5055887;28;20443;-60
2023/04/11 08:06:36;;;;;;;9.57;5.50;;;11.30;99.90;;;;;;5055275;28;20444;-61
2023/04/11 08:09:06;;;;;;;8.00;4.70;;;11.30;99.90;;;;;;5054056;28;20488;-59
2023/04/11 08:11:33;;;;;;;9.73;5.90;;;11.20;99.90;;;;;;5053321;28;20435;-62
2023/04/11 08:14:00;;;;;;;11.07;5.03;;;11.10;99.90;;;;;;5054095;28;20468;-62
2023/04/11 08:16:28;;;;;;;8.73;4.57;;;11.10;99.90;;;;;;5053511;28;20452;-62
2023/04/11 08:18:56;;;;;;;9.27;5.20;;;11.10;99.90;;;;;;5053605;28;20464;-62
2023/04/11 08:21:25;;;;;;;9.47;5.47;;;11.10;99.90;;;;;;5054005;28;20448;-61
2023/04/11 08:23:54;;;;;;;14.40;6.37;;;11.10;99.90;;;;;;5054031;28;20475;-63
2023/04/11 08:26:21;;;;;;;14.70;4.80;;;11.10;99.90;;;;;;5053904;28;20439;-62
2023/04/11 08:28:48;;;;;;;6.90;4.87;;;11.10;99.90;;;;;;5054015;28;20488;-62
2023/04/11 08:31:14;;;;;;;7.07;4.67;;;11.10;99.90;;;;;;5053395;28;20452;-64
2023/04/11 08:33:43;;;;;;;11.33;3.50;;;11.00;99.90;;;;;;5054016;28;20468;-61
2023/04/11 08:36:11;;;;;;;3.77;2.73;;;10.90;99.90;;;;;;5054344;28;20445;-61
2023/04/11 08:38:38;;;;;;;3.30;2.63;;;10.70;99.90;;;;;;5054804;28;20522;-59
2023/04/11 08:41:06;;;;;;;4.37;2.40;;;10.50;99.90;;;;;;5054520;28;20444;-62
2023/04/11 08:43:34;;;;;;;10.33;3.17;;;10.40;99.90;;;;;;5054552;28;20796;-60
2023/04/11 08:46:02;;;;;;;12.80;2.90;;;10.30;99.90;;;;;;5055075;28;20432;-60
2023/04/11 08:48:29;;;;;;;3.70;2.40;;;10.30;99.90;;;;;;5054319;28;20452;-59
2023/04/11 08:50:57;;;;;;;3.87;2.80;;;10.30;99.90;;;;;;5053972;28;20444;-61
2023/04/11 08:53:25;;;;;;;4.03;2.30;;;10.20;99.90;;;;;;5053899;28;20498;-62
2023/04/11 08:55:52;;;;;;;5.90;2.30;;;10.10;99.90;;;;;;5054171;28;20755;-59
2023/04/11 08:58:19;;;;;;;7.17;2.97;;;10.10;99.90;;;;;;5054677;28;20455;-62
2023/04/11 09:00:49;;;;;;;4.70;1.73;;;10.00;99.90;;;;;;5054852;28;20431;-61
2023/04/11 09:03:18;;;;;;;2.70;1.90;;;9.90;99.90;;;;;;5054533;28;20432;-61
2023/04/11 09:05:45;;;;;;;6.60;1.77;;;10.00;99.90;;;;;;5054359;28;20467;-62
2023/04/11 09:08:15;;;;;;;2.90;2.03;;;10.10;99.90;;;;;;5053624;28;20456;-62
2023/04/11 09:10:44;;;;;;;4.03;2.63;;;10.30;99.90;;;;;;5053091;28;20544;-60
2023/04/11 09:13:21;;;;;;;3.80;2.30;;;10.40;99.90;;;;;;5053667;28;20456;-61
2023/04/11 09:15:48;;;;;;;5.00;1.90;;;10.60;99.90;;;;;;5054381;28;20472;-61
2023/04/11 09:18:33;;;;;;;2.70;1.77;;;10.70;99.90;;;;;;5054424;28;20428;-61
2023/04/11 09:21:01;;;;;;;2.37;1.50;;;10.80;99.90;;;;;;5053367;28;20444;-62
2023/04/11 09:23:29;;;;;;;5.37;1.83;;;10.90;99.90;;;;;;5053627;28;20447;-62
2023/04/11 09:25:57;;;;;;;3.20;1.80;;;10.90;99.90;;;;;;5053094;28;20436;-60
2023/04/11 09:28:24;;;;;;;8.30;1.90;;;11.00;99.90;;;;;;5054970;28;20440;-61
2023/04/11 09:30:53;;;;;;;2.73;1.50;;;11.20;99.90;;;;;;5055699;28;20476;-61
2023/04/11 09:33:22;;;;;;;2.60;1.67;;;11.40;99.90;;;;;;5057343;28;20459;-61
2023/04/11 09:35:51;;;;;;;6.10;1.63;;;11.40;99.90;;;;;;5056280;28;20478;-61
2023/04/11 09:38:30;;;;;;;7.90;1.90;;;11.70;99.90;;;;;;5057333;28;20447;-60
2023/04/11 09:40:58;;;;;;;3.17;1.40;;;12.20;99.90;;;;;;5057078;28;20490;-61
2023/04/11 09:43:25;;;;;;;1.90;1.20;;;12.60;99.90;;;;;;5056865;28;20468;-61
2023/04/11 09:46:10;;;;;;;3.43;1.40;;;13.00;99.90;;;;;;5056802;28;20447;-61
2023/04/11 09:48:38;;;;;;;3.13;1.37;;;13.40;99.90;;;;;;5056888;28;20904;-61
2023/04/11 09:51:06;;;;;;;4.13;1.50;;;13.50;99.90;;;;;;5057688;28;20411;-61
2023/04/11 09:53:36;;;;;;;6.53;1.63;;;13.40;99.90;;;;;;5057028;28;20472;-61
2023/04/11 09:56:03;;;;;;;1.70;1.17;;;13.40;99.90;;;;;;5057342;28;20475;-59
2023/04/11 09:58:33;;;;;;;4.30;1.77;;;13.40;99.90;;;;;;5057058;28;20432;-62
2023/04/11 10:01:00;;;;;;;2.10;1.30;;;13.50;99.90;;;;;;5057603;28;20440;-62
2023/04/11 10:03:29;;;;;;;4.03;1.77;;;13.60;99.90;;;;;;5056535;28;20535;-61
2023/04/11 10:05:57;;;;;;;6.37;2.10;;;13.60;99.90;;;;;;5057098;28;20469;-60
2023/04/11 10:08:31;;;;;;;7.90;2.10;;;13.60;99.90;;;;;;5057463;28;20451;-59
2023/04/11 10:11:00;;;;;;;8.30;1.30;;;13.60;99.90;;;;;;5057077;28;20492;-61
2023/04/11 10:13:40;;;;;;;1.47;1.33;;;13.50;99.90;;;;;;5056554;28;20467;-61
2023/04/11 10:16:12;;;;;;;2.93;1.37;;;13.60;99.90;;;;;;5057128;28;20467;-62
2023/04/11 10:19:18;;;;;;;4.50;1.30;;;13.60;99.90;;;;;;5056940;28;20429;-61
2023/04/11 10:21:45;;;;;;;2.33;1.47;;;13.90;99.90;;;;;;5056256;28;20440;-60
2023/04/11 10:24:13;;;;;;;2.17;1.20;;;14.10;99.90;;;;;;5056709;28;20463;-62
2023/04/11 10:26:48;;;;;;;3.50;1.30;;;13.90;99.90;;;;;;5057196;28;20447;-61
2023/04/11 10:29:51;;;;;;;4.20;1.13;;;14.00;99.90;;;;;;5056870;28;20455;-61
2023/04/11 10:32:20;;;;;;;2.60;1.47;;;14.20;99.90;;;;;;5058338;28;20447;-57
2023/04/11 10:35:33;;;;;;;2.17;1.50;;;14.40;99.90;;;;;;5057820;28;20475;-59
2023/04/11 10:38:00;;;;;;;6.90;1.47;;;15.10;99.90;;;;;;5058280;28;20470;-57
2023/04/11 10:40:26;;;;;;;3.70;1.60;;;16.10;99.90;;;;;;5057108;28;20806;-60
2023/04/11 10:42:56;;;;;;;3.77;1.30;;;16.80;99.90;;;;;;5057425;28;20436;-59
2023/04/11 10:45:24;;;;;;;4.23;1.80;;;17.10;99.90;;;;;;5057383;28;20484;-58
2023/04/11 10:48:12;;;;;;;2.77;1.70;;;17.20;99.90;;;;;;5057421;28;20424;-62
2023/04/11 10:50:43;;;;;;;2.07;1.70;;;17.20;99.90;;;;;;5056948;28;20502;-62
2023/04/11 10:53:32;;;;;;;3.43;1.90;;;16.90;99.90;;;;;;5056922;28;20432;-60
2023/04/11 10:56:01;;;;;;;3.07;1.10;;;16.40;99.90;;;;;;5056578;28;20464;-61
2023/04/11 10:58:37;;;;;;;2.30;1.30;;;16.00;99.90;;;;;;5056160;28;20428;-62
2023/04/11 11:01:25;;;;;;;3.40;1.63;;;15.70;99.90;;;;;;5056289;28;20464;-62
2023/04/11 11:03:55;;;;;;;6.73;1.67;;;15.20;99.90;;;;;;5055860;28;20442;-59
2023/04/11 11:06:22;;;;;;;7.60;1.50;;;14.60;99.90;;;;;;5055719;28;20444;-62
2023/04/11 11:08:50;;;;;;;1.80;1.27;;;14.10;99.90;;;;;;5055929;28;20440;-61
2023/04/11 11:11:18;;;;;;;2.10;1.33;;;13.50;99.90;;;;;;5055715;28;20514;-60
2023/04/11 11:13:50;;;;;;;3.10;1.20;;;12.90;99.90;;;;;;5056016;28;20487;-61
2023/04/11 11:16:19;;;;;;;7.43;0.90;;;12.50;99.90;;;;;;5055421;28;20476;-63
2023/04/11 11:18:47;;;;;;;2.40;1.57;;;12.20;99.90;;;;;;5055835;28;20450;-62
2023/04/11 11:21:19;;;;;;;1.77;1.30;;;12.00;99.90;;;;;;5055608;28;20479;-61
2023/04/11 11:24:01;;;;;;;3.73;1.90;;;12.00;99.90;;;;;;5056107;28;20424;-61
2023/04/11 11:26:39;;;;;;;1.30;1.10;;;12.30;99.90;;;;;;5053676;28;20476;-59
2023/04/11 11:29:07;;;;;;;3.00;1.67;;;12.80;99.90;;;;;;5056395;28;20443;-58
2023/04/11 11:31:38;;;;;;;2.60;1.63;;;13.20;99.90;;;;;;5056170;28;20486;-61
2023/04/11 11:34:05;;;;;;;3.83;1.67;;;13.50;99.90;;;;;;5055878;28;20455;-62
2023/04/11 11:36:34;;;;;;;5.13;1.97;;;13.60;99.90;;;;;;5055509;28;20472;-61
2023/04/11 11:39:04;;;;;;;3.90;2.43;;;13.50;99.90;;;;;;5055261;28;20444;-59
2023/04/11 11:41:33;;;;;;;3.23;1.73;;;13.50;99.90;;;;;;5055093;28;20476;-61
2023/04/11 11:44:00;;;;;;;3.53;1.80;;;13.40;99.90;;;;;;5055121;28;20489;-59
2023/04/11 11:46:32;;;;;;;2.70;1.60;;;13.50;99.90;;;;;;5055213;28;20466;-60
2023/04/11 11:49:00;;;;;;;5.90;1.83;;;13.60;99.90;;;;;;5053939;28;20516;-62
2023/04/11 11:51:38;;;;;;;3.53;1.90;;;13.60;99.90;;;;;;5053833;28;20511;-59
2023/04/11 11:54:07;;;;;;;1.57;0.80;;;13.80;99.90;;;;;;5055642;28;20452;-61
2023/04/11 11:56:34;;;;;;;2.33;1.60;;;13.80;99.90;;;;;;5055138;28;20539;-60
2023/04/11 11:59:02;;;;;;;2.50;1.50;;;13.70;99.90;;;;;;5055607;28;20455;-56
2023/04/11 12:01:32;;;;;;;2.60;2.17;;;13.80;99.90;;;;;;5055573;28;20468;-61
2023/04/11 12:03:59;;;;;;;6.20;1.97;;;14.00;99.90;;;;;;5056470;28;20460;-63
2023/04/11 12:06:29;;;;;;;3.30;1.50;;;14.00;99.90;;;;;;5054787;28;20464;-62
2023/04/11 12:09:02;;;;;;;3.67;1.40;;;14.00;99.90;;;;;;5055594;28;20413;-62
2023/04/11 12:11:36;;;;;;;5.50;1.67;;;14.00;99.90;;;;;;5055466;28;20480;-62
2023/04/11 12:14:03;;;;;;;2.90;1.80;;;13.90;99.90;;;;;;5054810;28;20474;-63
2023/04/11 12:16:32;;;;;;;3.70;1.50;;;13.90;99.90;;;;;;5054592;28;20444;-61
2023/04/11 12:18:59;;;;;;;2.23;1.67;;;13.60;99.90;;;;;;5054279;28;20447;-61
2023/04/11 12:21:26;;;;;;;1.67;1.53;;;13.70;99.90;;;;;;5054023;28;20444;-62
2023/04/11 12:23:53;;;;;;;1.77;1.17;;;13.80;99.90;;;;;;5054076;28;20741;-58
2023/04/11 12:26:21;;;;;;;2.87;1.80;;;13.90;99.90;;;;;;5053834;28;20444;-60
2023/04/11 12:28:49;;;;;;;16.53;8.30;;;14.00;99.90;;;;;;5055008;28;20455;-60
2023/04/11 12:31:16;;;;;;;1.60;1.37;;;14.10;99.90;;;;;;5053907;28;20575;-61
2023/04/11 12:33:44;;;;;;;4.77;1.40;;;14.40;99.90;;;;;;5054705;28;20464;-58
2023/04/11 12:36:13;;;;;;;2.33;1.10;;;14.70;99.90;;;;;;5054440;28;20441;-61
2023/04/11 12:38:40;;;;;;;1.87;1.23;;;14.70;99.90;;;;;;5054194;28;20495;-61
2023/04/11 12:41:06;;;;;;;2.53;1.10;;;14.60;99.90;;;;;;5054434;28;20455;-61
2023/04/11 12:43:35;;;;;;;2.00;1.30;;;14.40;99.90;;;;;;5054137;28;20444;-60
2023/04/11 12:46:02;;;;;;;1.53;1.20;;;14.20;99.90;;;;;;5054686;28;20452;-60
2023/04/11 12:48:29;;;;;;;1.67;1.40;;;14.10;99.90;;;;;;5054359;28;20445;-62
2023/04/11 12:50:57;;;;;;;2.10;1.20;;;14.00;99.90;;;;;;5053525;28;20480;-59
2023/04/11 12:53:24;;;;;;;1.80;1.13;;;13.90;99.90;;;;;;5054071;28;20495;-61
2023/04/11 12:55:51;;;;;;;3.57;1.33;;;13.90;99.90;;;;;;5053595;28;20463;-59